EST,Max TemperatureF,Mean TemperatureF,Min TemperatureF,Max Dew PointF,MeanDew PointF,Min DewpointF,Max Humidity, Mean Humidity, Min Humidity, Max Sea Level PressureIn, Mean Sea Level PressureIn, Min Sea Level PressureIn, Max VisibilityMiles, Mean VisibilityMiles, Min VisibilityMiles, Max Wind SpeedMPH, Mean Wind SpeedMPH, Max Gust SpeedMPH,PrecipitationIn, CloudCover, Events, WindDirDegrees
2014-2-1,44,36,28,27,20,16,69,53,32,30.35,30.24,30.06,10,10,10,9,4,,0.00,2,,190
2014-2-2,48,41,34,39,33,27,89,76,54,30.05,29.95,29.88,10,9,3,8,5,,0.07,6,Rain,231
2014-2-3,37,29,21,30,22,17,85,73,54,30.31,30.20,30.09,10,6,1,13,6,,0.01,6,Snow,10
2014-2-4,34,25,16,21,16,12,85,67,48,30.47,30.39,30.31,10,9,2,8,2,,0.00,0,,244
2014-2-5,30,26,23,24,20,17,89,79,61,30.31,29.92,29.68,10,3,0,18,8,18,0.55,7,Fog-Snow,16
2014-2-6,25,20,14,16,7,0,80,59,34,30.28,30.19,30.01,10,10,10,10,5,17,0.00,3,,303
2014-2-7,28,20,12,8,6,2,67,52,38,30.26,30.21,30.15,10,9,3,15,9,25,0.00,1,Snow,233
2014-2-8,28,21,14,4,1,-3,50,39,30,30.30,30.22,30.14,10,10,10,13,8,,0.00,2,,245
2014-2-9,30,24,19,22,15,3,88,69,39,30.19,30.06,29.96,10,5,1,10,5,,0.02,7,Snow,26
2014-2-10,26,20,12,21,11,2,85,63,39,30.23,30.03,29.91,10,8,2,16,8,23,0.01,3,Snow,280
2014-2-11,24,15,6,4,0,-5,80,54,34,30.46,30.32,30.23,10,10,10,14,5,,0.00,0,,282
2014-2-12,28,17,6,9,-4,-13,71,43,18,30.58,30.51,30.45,10,10,10,10,4,,0.00,0,,179
2014-2-13,34,25,16,30,20,7,86,80,65,30.42,29.93,29.06,10,4,0,31,9,41,0.39,8,Fog-Rain-Snow,26
2014-2-14,35,32,28,31,25,19,92,74,56,29.74,29.08,28.85,10,7,0,28,14,43,0.38,7,Rain-Snow,279
2014-2-15,36,30,24,27,24,18,85,77,50,29.87,29.71,29.50,10,4,1,16,7,24,0.08,6,Snow,360
2014-2-16,30,24,19,26,11,-3,85,55,33,29.98,29.70,29.48,10,8,2,22,14,32,0.00,2,Snow,291
2014-2-17,27,20,10,-1,-6,-8,59,34,23,30.38,30.24,30.01,10,10,10,18,12,30,0.00,0,,303
2014-2-18,30,18,6,26,16,-4,89,77,54,30.38,30.09,29.92,10,5,0,20,5,,0.46,6,Fog-Snow,354
2014-2-19,35,25,15,30,25,12,89,81,64,30.10,29.88,29.74,10,6,0,10,5,,0.14,5,Rain-Snow,31
2014-2-20,46,37,28,31,26,21,89,70,37,30.25,30.15,29.88,10,8,1,14,7,26,0.27,3,Rain-Snow,223
2014-2-21,39,36,34,37,34,31,93,89,86,30.16,29.96,29.70,10,4,0,10,5,,0.32,7,Fog-Rain-Thunderstorm,70
2014-2-22,51,42,32,31,25,18,89,56,27,29.97,29.90,29.83,10,10,7,21,9,32,0.00,0,,211
2014-2-23,48,39,30,27,23,22,72,52,36,30.00,29.91,29.78,10,10,10,10,5,,0.00,5,,214
2014-2-24,39,31,21,26,11,5,65,44,30,29.96,29.81,29.75,10,10,9,17,9,29,0.00,3,Snow,278
2014-2-25,27,22,17,6,3,2,62,45,34,29.99,29.94,29.88,10,10,10,18,8,24,0.00,1,,270
2014-2-26,28,20,12,6,1,-8,65,46,28,29.94,29.86,29.77,10,10,10,23,8,36,0.00,3,,236
2014-2-27,27,18,9,17,1,-10,75,47,24,29.90,29.74,29.60,10,8,1,18,7,30,0.00,4,Snow,245
2014-2-28,23,16,8,-3,-10,-15,49,33,18,30.46,30.27,29.95,10,10,10,14,9,29,0.00,0,,284